createdAt,value
2019-03-05T00:00:12.626Z,39.71
2019-03-05T00:01:12.554Z,39.72
2019-03-05T00:02:12.738Z,39.7
2019-03-05T00:03:12.846Z,39.67
2019-03-05T00:04:12.670Z,39.71
2019-03-05T00:05:12.609Z,39.7
2019-03-05T00:06:12.683Z,39.71
2019-03-05T00:07:12.777Z,39.76
2019-03-05T00:08:12.668Z,39.76
2019-03-05T00:09:12.457Z,39.74
2019-03-05T00:10:12.647Z,39.72
2019-03-05T00:11:12.643Z,39.67
2019-03-05T00:12:12.497Z,39.71
2019-03-05T00:13:12.610Z,39.74
2019-03-05T00:14:12.680Z,39.69
2019-03-05T00:15:12.418Z,39.74
2019-03-05T00:16:12.589Z,39.73
2019-03-05T00:17:12.617Z,39.73
2019-03-05T00:18:12.578Z,39.76
2019-03-05T00:19:12.629Z,39.79
2019-03-05T00:20:12.776Z,39.72
2019-03-05T00:21:12.969Z,39.78
2019-03-05T00:22:13.068Z,39.76
2019-03-05T00:23:12.772Z,39.76
2019-03-05T00:24:12.488Z,39.73
2019-03-05T00:25:12.651Z,39.74
2019-03-05T00:26:12.643Z,39.74
2019-03-05T00:27:12.496Z,39.7
2019-03-05T00:28:12.617Z,39.75
2019-03-05T00:29:12.636Z,39.73
2019-03-05T00:30:12.503Z,39.71
2019-03-05T00:31:12.627Z,39.73
2019-03-05T00:32:12.785Z,39.74
2019-03-05T00:33:12.525Z,39.74
2019-03-05T00:34:12.596Z,39.78
2019-03-05T00:35:12.654Z,39.8
2019-03-05T00:36:12.570Z,39.79
2019-03-05T00:37:12.725Z,39.75
2019-03-05T00:38:12.754Z,39.79
2019-03-05T00:39:12.540Z,39.74
2019-03-05T00:40:12.690Z,39.78
2019-03-05T00:41:12.831Z,39.8
2019-03-05T00:42:12.602Z,39.79
2019-03-05T00:43:12.890Z,39.71
2019-03-05T00:44:12.498Z,39.77
2019-03-05T00:45:12.586Z,39.83
2019-03-05T00:46:12.697Z,39.78
2019-03-05T00:47:12.498Z,39.74
2019-03-05T00:48:12.584Z,39.79
2019-03-05T00:49:12.651Z,39.81
2019-03-05T00:50:12.551Z,39.76
2019-03-05T00:51:25.293Z,39.83
2019-03-05T00:52:12.704Z,39.79
2019-03-05T00:53:12.517Z,39.82
2019-03-05T00:54:12.561Z,39.78
2019-03-05T00:55:12.623Z,39.78
2019-03-05T00:56:12.521Z,39.77
2019-03-05T00:57:12.585Z,39.77
2019-03-05T00:58:12.716Z,39.84
2019-03-05T00:59:12.514Z,39.77
2019-03-05T01:00:12.556Z,39.79
2019-03-05T01:01:12.713Z,39.79
2019-03-05T01:02:12.511Z,39.77
2019-03-05T01:03:12.535Z,39.82
2019-03-05T01:04:13.120Z,39.81
2019-03-05T01:05:12.597Z,39.8
2019-03-05T01:06:12.551Z,39.83
2019-03-05T01:07:12.748Z,39.8
2019-03-05T01:08:12.565Z,39.84
2019-03-05T01:09:12.608Z,39.77
2019-03-05T01:10:12.736Z,39.82
2019-03-05T01:11:12.816Z,39.82
2019-03-05T01:12:12.564Z,39.83
2019-03-05T01:13:12.758Z,39.79
2019-03-05T01:14:12.556Z,39.83
2019-03-05T01:15:12.611Z,39.85
2019-03-05T01:16:12.779Z,39.75
2019-03-05T01:17:12.519Z,39.84
2019-03-05T01:18:12.612Z,39.83
2019-03-05T01:19:12.737Z,39.79
2019-03-05T01:20:12.565Z,39.82
2019-03-05T01:21:12.624Z,39.78
2019-03-05T01:22:12.477Z,39.81
2019-03-05T01:23:12.614Z,39.82
2019-03-05T01:24:12.993Z,39.82
2019-03-05T01:25:12.472Z,39.84
2019-03-05T01:26:12.912Z,39.8
2019-03-05T01:27:12.751Z,39.84
2019-03-05T01:28:12.526Z,39.79
2019-03-05T01:29:12.665Z,39.85
2019-03-05T01:30:12.749Z,39.86
2019-03-05T01:31:12.589Z,39.79
2019-03-05T01:32:12.681Z,39.83
2019-03-05T01:33:12.639Z,39.86
2019-03-05T01:34:12.494Z,39.79
2019-03-05T01:35:12.669Z,39.85
2019-03-05T01:36:12.654Z,39.83
2019-03-05T01:37:12.514Z,39.83
2019-03-05T01:38:12.618Z,39.87
2019-03-05T01:39:12.660Z,39.83
2019-03-05T01:40:12.512Z,39.82
2019-03-05T01:41:12.580Z,39.83
2019-03-05T01:42:12.742Z,39.86
2019-03-05T01:43:12.467Z,39.88
2019-03-05T01:44:12.627Z,39.83
2019-03-05T01:45:12.747Z,39.84
2019-03-05T01:46:12.514Z,39.84
2019-03-05T01:47:12.786Z,39.83
2019-03-05T01:48:12.515Z,39.85
2019-03-05T01:49:12.537Z,39.83
2019-03-05T01:50:12.679Z,39.79
2019-03-05T01:51:12.556Z,39.82
2019-03-05T01:52:12.534Z,39.83
2019-03-05T01:53:12.673Z,39.82
2019-03-05T01:54:12.570Z,39.85
2019-03-05T01:55:12.631Z,39.81
2019-03-05T01:56:12.733Z,39.84
2019-03-05T01:57:12.533Z,39.84
2019-03-05T01:58:12.538Z,39.84
2019-03-05T01:59:12.576Z,39.85
2019-03-05T02:00:12.573Z,39.83
2019-03-05T02:01:12.520Z,39.84
2019-03-05T02:02:12.715Z,39.84
2019-03-05T02:03:12.521Z,39.81
2019-03-05T02:04:12.536Z,39.85
2019-03-05T02:05:12.650Z,39.85
2019-03-05T02:06:12.533Z,39.86
2019-03-05T02:07:12.519Z,39.8
2019-03-05T02:08:12.688Z,39.79
2019-03-05T02:09:12.920Z,39.84
2019-03-05T02:10:12.632Z,39.86
2019-03-05T02:11:12.694Z,39.85
2019-03-05T02:12:12.488Z,39.85
2019-03-05T02:13:12.529Z,39.85
2019-03-05T02:14:12.759Z,39.85
2019-03-05T02:15:12.581Z,39.84
2019-03-05T02:16:12.626Z,39.84
2019-03-05T02:17:12.642Z,39.8
2019-03-05T02:18:12.597Z,39.85
2019-03-05T02:19:12.633Z,39.83
2019-03-05T02:20:12.485Z,39.89
2019-03-05T02:21:12.520Z,39.83
2019-03-05T02:22:12.597Z,39.84
2019-03-05T02:23:12.436Z,39.84
2019-03-05T02:24:12.599Z,39.83
2019-03-05T02:25:12.622Z,39.85
2019-03-05T02:26:12.442Z,39.84
2019-03-05T02:27:12.654Z,39.83
2019-03-05T02:28:12.620Z,39.87
2019-03-05T02:29:12.406Z,39.86
2019-03-05T02:30:12.526Z,39.87
2019-03-05T02:31:12.607Z,39.87
2019-03-05T02:32:12.486Z,39.84
2019-03-05T02:33:12.614Z,39.93
2019-03-05T02:34:12.675Z,39.85
2019-03-05T02:35:12.603Z,39.8
2019-03-05T02:36:12.562Z,39.86
2019-03-05T02:37:12.634Z,39.89
2019-03-05T02:38:12.572Z,39.83
2019-03-05T02:39:12.616Z,39.9
2019-03-05T02:40:12.638Z,39.89
2019-03-05T02:41:12.465Z,39.84
2019-03-05T02:42:12.625Z,39.87
2019-03-05T02:43:12.612Z,39.9
2019-03-05T02:44:12.480Z,39.86
2019-03-05T02:45:12.599Z,39.91
2019-03-05T02:46:12.677Z,39.87
2019-03-05T02:47:12.746Z,39.89
2019-03-05T02:48:12.625Z,39.93
2019-03-05T02:49:12.679Z,39.9
2019-03-05T02:50:12.516Z,39.85
2019-03-05T02:51:12.656Z,39.92
2019-03-05T02:52:12.633Z,39.91
2019-03-05T02:53:12.522Z,39.9
2019-03-05T02:54:12.637Z,39.93
2019-03-05T02:55:12.427Z,39.93
2019-03-05T02:56:12.528Z,39.9
2019-03-05T02:57:12.697Z,39.88
2019-03-05T02:58:12.450Z,39.9
2019-03-05T02:59:12.618Z,39.89
2019-03-05T03:00:12.685Z,39.83
2019-03-05T03:01:12.520Z,39.93
2019-03-05T03:02:12.542Z,39.85
2019-03-05T03:03:12.601Z,39.9
2019-03-05T03:04:12.472Z,39.87
2019-03-05T03:05:12.488Z,39.88
2019-03-05T03:06:12.672Z,39.92
2019-03-05T03:07:12.548Z,39.91
2019-03-05T03:08:12.529Z,39.91
2019-03-05T03:09:12.662Z,39.9
2019-03-05T03:10:12.497Z,39.85
2019-03-05T03:11:12.623Z,39.91
2019-03-05T03:12:12.926Z,39.88
2019-03-05T03:13:12.539Z,39.86
2019-03-05T03:14:12.546Z,39.9
2019-03-05T03:15:12.690Z,39.88
2019-03-05T03:16:12.514Z,39.92
2019-03-05T03:17:12.674Z,39.93
2019-03-05T03:18:12.744Z,39.91
2019-03-05T03:19:12.571Z,39.92
2019-03-05T03:20:12.641Z,39.9
2019-03-05T03:21:12.536Z,39.94
2019-03-05T03:22:12.578Z,39.92
2019-03-05T03:23:12.681Z,39.91
2019-03-05T03:24:12.468Z,39.9
2019-03-05T03:25:12.665Z,39.91
2019-03-05T03:26:12.635Z,39.91
2019-03-05T03:27:12.403Z,39.89
2019-03-05T03:28:12.592Z,39.88
2019-03-05T03:29:12.564Z,39.89
2019-03-05T03:30:12.532Z,39.92
2019-03-05T03:31:12.566Z,39.91
2019-03-05T03:32:12.764Z,39.94
2019-03-05T03:33:12.666Z,39.96
2019-03-05T03:34:12.635Z,39.96
2019-03-05T03:35:12.822Z,39.94
2019-03-05T03:36:12.454Z,39.96
2019-03-05T03:37:12.648Z,39.92
2019-03-05T03:38:12.461Z,39.91
2019-03-05T03:39:12.499Z,39.93
2019-03-05T03:40:12.687Z,39.93
2019-03-05T03:41:12.506Z,39.93
2019-03-05T03:42:12.646Z,39.94
2019-03-05T03:43:12.685Z,39.93
2019-03-05T03:44:12.475Z,39.95
2019-03-05T03:45:12.676Z,39.98
2019-03-05T03:46:12.678Z,39.96
2019-03-05T03:47:12.589Z,39.93
2019-03-05T03:48:12.552Z,39.97
2019-03-05T03:49:12.597Z,39.95
2019-03-05T03:50:12.500Z,39.99
2019-03-05T03:51:12.734Z,39.97
2019-03-05T03:52:12.343Z,40.01
2019-03-05T03:53:12.569Z,39.98
2019-03-05T03:54:12.890Z,39.93
2019-03-05T03:55:12.739Z,39.97
2019-03-05T03:56:12.485Z,39.94
2019-03-05T03:57:12.561Z,39.93
2019-03-05T03:58:12.689Z,39.96
2019-03-05T03:59:12.689Z,39.96
2019-03-05T04:00:12.593Z,39.97
2019-03-05T04:01:12.425Z,39.98
2019-03-05T04:02:12.552Z,39.95
2019-03-05T04:03:12.588Z,39.97
2019-03-05T04:04:12.451Z,40.01
2019-03-05T04:05:12.577Z,39.94
2019-03-05T04:06:12.617Z,39.93
2019-03-05T04:07:12.439Z,39.97
2019-03-05T04:08:12.566Z,39.94
2019-03-05T04:09:12.641Z,39.98
2019-03-05T04:10:12.568Z,39.93
2019-03-05T04:11:12.596Z,40.02
2019-03-05T04:12:12.424Z,40
2019-03-05T04:13:12.504Z,39.98
2019-03-05T04:14:12.634Z,39.97
2019-03-05T04:15:12.797Z,39.99
2019-03-05T04:16:12.893Z,39.98
2019-03-05T04:17:12.654Z,40
2019-03-05T04:18:12.474Z,39.98
2019-03-05T04:19:12.790Z,39.99
2019-03-05T04:20:12.415Z,39.98
2019-03-05T04:21:12.513Z,40
2019-03-05T04:22:12.558Z,40.01
2019-03-05T04:23:12.402Z,39.97
2019-03-05T04:24:12.604Z,40
2019-03-05T04:25:12.482Z,39.98
2019-03-05T04:26:12.428Z,39.98
2019-03-05T04:27:12.529Z,39.97
2019-03-05T04:28:12.716Z,40
2019-03-05T04:29:12.530Z,39.97
2019-03-05T04:30:12.581Z,40.03
2019-03-05T04:31:12.553Z,40.04
2019-03-05T04:32:12.442Z,39.96
2019-03-05T04:33:12.595Z,40.02
2019-03-05T04:34:12.584Z,40.04
2019-03-05T04:35:12.399Z,40.01
2019-03-05T04:36:12.622Z,40.02
2019-03-05T04:37:13.137Z,40.03
2019-03-05T04:38:12.506Z,40.02
2019-03-05T04:39:12.581Z,40.01
2019-03-05T04:40:12.438Z,40
2019-03-05T04:41:12.762Z,39.96
2019-03-05T04:42:12.678Z,40.04
2019-03-05T04:43:12.537Z,40
2019-03-05T04:44:12.529Z,40
2019-03-05T04:45:12.627Z,39.98
2019-03-05T04:46:12.525Z,39.97
2019-03-05T04:47:12.486Z,39.98
2019-03-05T04:48:12.666Z,40.03
2019-03-05T04:49:12.487Z,39.99
2019-03-05T04:50:12.514Z,40.02
2019-03-05T04:51:12.380Z,40.02
2019-03-05T04:52:12.467Z,40.01
2019-03-05T04:53:12.563Z,40.02
2019-03-05T04:54:12.393Z,40.02
2019-03-05T04:55:12.523Z,40.01
2019-03-05T04:56:12.539Z,40.02
2019-03-05T04:57:12.530Z,40.01
2019-03-05T04:58:12.540Z,39.98
2019-03-05T04:59:12.580Z,40.03
2019-03-05T05:00:12.411Z,40.01
2019-03-05T05:01:12.535Z,40.05
2019-03-05T05:02:12.606Z,40.03
2019-03-05T05:03:12.377Z,40.02
2019-03-05T05:04:12.499Z,40.01
2019-03-05T05:05:12.619Z,40.01
2019-03-05T05:06:12.468Z,40
2019-03-05T05:07:12.564Z,39.99
2019-03-05T05:08:12.466Z,40.02
2019-03-05T05:09:12.461Z,40.02
2019-03-05T05:10:12.617Z,40.03
2019-03-05T05:11:12.408Z,40.07
2019-03-05T05:12:12.491Z,40.05
2019-03-05T05:13:12.610Z,40.02
2019-03-05T05:14:12.447Z,40.05
2019-03-05T05:15:12.530Z,40.02
2019-03-05T05:16:12.599Z,40.04
2019-03-05T05:17:12.464Z,40.08
2019-03-05T05:18:12.620Z,39.98
2019-03-05T05:19:12.602Z,40.02
2019-03-05T05:20:12.452Z,40.03
2019-03-05T05:21:12.513Z,40.05
2019-03-05T05:22:12.623Z,40.02
2019-03-05T05:23:12.467Z,40
2019-03-05T05:24:12.527Z,40.02
2019-03-05T05:25:12.312Z,40.01
2019-03-05T05:26:12.476Z,40.01
2019-03-05T05:27:12.545Z,40.05
2019-03-05T05:28:12.477Z,40.02
2019-03-05T05:29:12.559Z,40.01
2019-03-05T05:30:12.526Z,40.02
2019-03-05T05:31:12.384Z,40.01
2019-03-05T05:32:12.535Z,39.99
2019-03-05T05:33:12.569Z,40.02
2019-03-05T05:34:12.524Z,40.05
2019-03-05T05:35:12.527Z,40.01
2019-03-05T05:36:12.709Z,40.03
2019-03-05T05:37:12.412Z,40.04
2019-03-05T05:38:12.590Z,39.98
2019-03-05T05:39:12.604Z,40.05
2019-03-05T05:40:12.438Z,40.03
2019-03-05T05:41:12.552Z,40.02
2019-03-05T05:42:12.872Z,40
2019-03-05T05:43:12.461Z,40.01
2019-03-05T05:44:12.560Z,40.04
2019-03-05T05:45:12.433Z,40.04
2019-03-05T05:46:12.383Z,40.05
2019-03-05T05:47:12.591Z,40.02
2019-03-05T05:48:12.414Z,40.04
2019-03-05T05:49:12.545Z,40.02
2019-03-05T05:50:12.566Z,40.03
2019-03-05T05:51:12.504Z,40.03
2019-03-05T05:52:12.460Z,40.03
2019-03-05T05:53:12.590Z,40
2019-03-05T05:54:12.461Z,40.01
2019-03-05T05:55:12.489Z,40.04
2019-03-05T05:56:12.598Z,40.03
2019-03-05T05:57:12.447Z,40.03
2019-03-05T05:58:12.554Z,40.03
2019-03-05T05:59:12.618Z,40.03
2019-03-05T06:00:12.466Z,40.02
2019-03-05T06:01:12.490Z,40
2019-03-05T06:02:12.623Z,40.08
2019-03-05T06:03:12.470Z,40.01
2019-03-05T06:04:12.711Z,40.02
2019-03-05T06:05:12.693Z,40.02
2019-03-05T06:06:12.498Z,40.03
2019-03-05T06:07:12.525Z,40.03
2019-03-05T06:08:12.345Z,40.04
2019-03-05T06:09:12.611Z,40.04
2019-03-05T06:10:12.666Z,40.05
2019-03-05T06:11:12.358Z,40.05
2019-03-05T06:12:12.544Z,40.04
2019-03-05T06:13:12.593Z,40.04
2019-03-05T06:14:12.358Z,40
2019-03-05T06:15:12.530Z,40.05
2019-03-05T06:16:12.590Z,40.03
2019-03-05T06:17:12.424Z,40.01
2019-03-05T06:18:12.563Z,40.04
2019-03-05T06:19:12.395Z,39.99
2019-03-05T06:20:12.412Z,39.24
2019-03-05T06:21:12.576Z,39.06
2019-03-05T06:22:12.580Z,39.13
2019-03-05T06:23:12.429Z,39
2019-03-05T06:24:12.567Z,38.88
2019-03-05T06:25:13.042Z,39.01
2019-03-05T06:26:12.457Z,38.92
2019-03-05T06:27:12.511Z,38.92
2019-03-05T06:28:12.458Z,38.92
2019-03-05T06:29:12.444Z,38.91
2019-03-05T06:30:12.560Z,38.78
2019-03-05T06:31:12.408Z,38.7
2019-03-05T06:32:12.447Z,38.64
2019-03-05T06:33:12.516Z,38.74
2019-03-05T06:34:12.323Z,38.87
2019-03-05T06:35:12.386Z,38.87
2019-03-05T06:36:12.523Z,39.06
2019-03-05T06:37:12.556Z,39.1
2019-03-05T06:38:12.547Z,39.13
2019-03-05T06:39:12.574Z,39.21
2019-03-05T06:40:12.342Z,39.24
2019-03-05T06:41:12.447Z,39.17
2019-03-05T06:42:12.581Z,39.18
2019-03-05T06:43:12.337Z,39.2
2019-03-05T06:44:12.415Z,39.22
2019-03-05T06:45:12.602Z,39.24
2019-03-05T06:46:12.426Z,39.25
2019-03-05T06:47:12.441Z,39.23
2019-03-05T06:48:12.609Z,39.25
2019-03-05T06:49:12.573Z,39.26
2019-03-05T06:50:12.357Z,39.22
2019-03-05T06:51:12.526Z,39.21
2019-03-05T06:52:12.527Z,39.2
2019-03-05T06:53:12.425Z,39.19
2019-03-05T06:54:12.512Z,39.15
2019-03-05T06:55:12.304Z,39.17
2019-03-05T06:56:12.695Z,39.16
2019-03-05T06:57:12.553Z,39.14
2019-03-05T06:58:12.590Z,39.14
2019-03-05T06:59:12.503Z,39.18
2019-03-05T07:00:12.542Z,39.16
2019-03-05T07:01:12.447Z,39.12
2019-03-05T07:02:12.371Z,39.13
2019-03-05T07:03:12.545Z,39.11
2019-03-05T07:04:12.525Z,39.12
2019-03-05T07:05:12.453Z,39.09
2019-03-05T07:06:12.588Z,39.09
2019-03-05T07:07:12.391Z,39.16
2019-03-05T07:08:12.427Z,39.16
2019-03-05T07:09:12.891Z,39.15
2019-03-05T07:10:12.428Z,39.19
2019-03-05T07:11:12.420Z,39.15
2019-03-05T07:12:12.605Z,39.13
2019-03-05T07:13:12.441Z,39.14
2019-03-05T07:14:12.442Z,39.22
2019-03-05T07:15:12.758Z,39.27
2019-03-05T07:16:12.436Z,39.22
2019-03-05T07:17:12.410Z,39.3
2019-03-05T07:18:12.344Z,39.36
2019-03-05T07:19:12.410Z,39.22
2019-03-05T07:20:12.467Z,39.34
2019-03-05T07:21:12.575Z,39.17
2019-03-05T07:22:12.442Z,39.26
2019-03-05T07:23:12.424Z,39.3
2019-03-05T07:24:12.552Z,39.21
2019-03-05T07:25:12.430Z,39.37
2019-03-05T07:26:12.421Z,39.31
2019-03-05T07:27:12.683Z,39.33
2019-03-05T07:28:12.405Z,39.27
2019-03-05T07:29:12.962Z,39.29
2019-03-05T07:30:12.244Z,39.37
2019-03-05T07:31:12.421Z,39.27
2019-03-05T07:32:12.451Z,39.26
2019-03-05T07:33:12.373Z,39.31
2019-03-05T07:34:12.460Z,39.17
2019-03-05T07:35:12.442Z,39.45
2019-03-05T07:36:12.348Z,39.71
2019-03-05T07:37:12.441Z,39.83
2019-03-05T07:38:12.498Z,39.88
2019-03-05T07:39:12.318Z,39.88
2019-03-05T07:40:12.484Z,39.9
2019-03-05T07:41:12.545Z,39.52
2019-03-05T07:42:12.348Z,39.52
2019-03-05T07:43:12.544Z,39.45
2019-03-05T07:44:12.490Z,39.52
2019-03-05T07:45:12.345Z,39.43
2019-03-05T07:46:12.505Z,39.39
2019-03-05T07:47:12.520Z,39.34
2019-03-05T07:48:12.367Z,39.24
2019-03-05T07:49:12.474Z,39.3
2019-03-05T07:50:12.527Z,39.25
2019-03-05T07:51:12.364Z,39.27
2019-03-05T07:52:12.467Z,39.23
2019-03-05T07:53:12.528Z,39.27
2019-03-05T07:54:12.422Z,39.23
2019-03-05T07:55:14.294Z,39.16
2019-03-05T07:56:12.506Z,39.28
2019-03-05T07:57:12.357Z,39.38
2019-03-05T07:58:12.491Z,39.43
2019-03-05T07:59:12.506Z,39.5
2019-03-05T08:00:12.336Z,39.49
2019-03-05T08:01:22.705Z,39.44
2019-03-05T08:02:12.608Z,39.52
2019-03-05T08:03:12.473Z,39.49
2019-03-05T08:04:12.502Z,39.43
2019-03-05T08:05:12.527Z,39.5
2019-03-05T08:06:12.332Z,39.5
2019-03-05T08:07:12.489Z,39.48
2019-03-05T08:08:12.548Z,39.53
2019-03-05T08:09:12.344Z,39.48
2019-03-05T08:10:12.591Z,39.44
2019-03-05T08:11:12.536Z,39.5
2019-03-05T08:12:12.490Z,39.39
2019-03-05T08:13:12.663Z,39.46
2019-03-05T08:14:12.356Z,39.42
2019-03-05T08:15:12.402Z,39.37
2019-03-05T08:16:12.528Z,39.38
2019-03-05T08:17:12.395Z,39.38
2019-03-05T08:18:12.381Z,39.41
2019-03-05T08:19:12.480Z,39.37
2019-03-05T08:20:12.338Z,39.44
2019-03-05T08:21:12.390Z,39.35
2019-03-05T08:22:12.787Z,39.31
2019-03-05T08:23:12.336Z,39.4
2019-03-05T08:24:12.365Z,39.4
2019-03-05T08:25:12.515Z,39.37
2019-03-05T08:26:12.324Z,39.34
2019-03-05T08:27:12.404Z,39.42
2019-03-05T08:28:12.574Z,39.33
2019-03-05T08:29:12.347Z,39.33
2019-03-05T08:30:15.092Z,39.3
2019-03-05T08:31:12.568Z,39.29
2019-03-05T08:32:12.304Z,39.33
2019-03-05T08:33:12.401Z,39.32
2019-03-05T08:34:12.710Z,39.26
2019-03-05T08:35:12.702Z,39.31
2019-03-05T08:36:12.416Z,39.27
2019-03-05T08:37:13.690Z,39.31
2019-03-05T08:38:12.341Z,39.27
2019-03-05T08:39:12.428Z,39.25
2019-03-05T08:40:12.570Z,39.21
2019-03-05T08:41:12.339Z,39.27
2019-03-05T08:42:12.395Z,39.22
2019-03-05T08:43:12.477Z,39.25
2019-03-05T08:44:12.395Z,39.23
2019-03-05T08:45:12.430Z,38.9
2019-03-05T08:46:12.625Z,39.17
2019-03-05T08:47:12.417Z,38.98
2019-03-05T08:48:12.420Z,39.07
2019-03-05T08:49:12.561Z,39.1
2019-03-05T08:50:12.381Z,39.15
2019-03-05T08:51:12.409Z,38.62
2019-03-05T08:52:12.563Z,38.76
2019-03-05T08:53:12.387Z,38.88
2019-03-05T08:54:12.464Z,39.11
2019-03-05T08:55:12.537Z,39.2
2019-03-05T08:56:12.572Z,39.16
2019-03-05T08:57:12.417Z,40.09
2019-03-05T08:58:12.557Z,39.77
2019-03-05T08:59:12.413Z,39.8
2019-03-05T09:00:12.431Z,39.69
2019-03-05T09:01:12.528Z,39.67
2019-03-05T09:02:12.474Z,40.31
2019-03-05T09:03:12.448Z,40.17
2019-03-05T09:04:12.520Z,39.18
2019-03-05T09:05:12.375Z,38.7
2019-03-05T09:06:12.722Z,39.19
2019-03-05T09:07:12.594Z,39.54
2019-03-05T09:08:12.298Z,38.72
2019-03-05T09:09:12.398Z,38.1
2019-03-05T09:10:12.479Z,37.83
2019-03-05T09:11:12.368Z,37.92
2019-03-05T09:12:12.387Z,38.14
2019-03-05T09:13:12.518Z,38.27
2019-03-05T09:14:12.316Z,38.34
2019-03-05T09:15:12.406Z,38.5
2019-03-05T09:16:12.704Z,38.63
2019-03-05T09:17:12.306Z,38.49
2019-03-05T09:18:13.334Z,38.63
2019-03-05T09:19:12.267Z,38.52
2019-03-05T09:20:12.362Z,39.3
2019-03-05T09:21:12.411Z,39.17
2019-03-05T09:22:12.598Z,38.87
2019-03-05T09:23:12.415Z,39.19
2019-03-05T09:24:12.432Z,39.32
2019-03-05T09:25:12.263Z,39.32
2019-03-05T09:26:12.394Z,39.27
2019-03-05T09:27:12.443Z,38.86
2019-03-05T09:28:12.219Z,38.62
2019-03-05T09:29:12.462Z,38.99
2019-03-05T09:30:12.501Z,38.62
2019-03-05T09:31:12.278Z,38.57
2019-03-05T09:32:12.421Z,38.53
2019-03-05T09:33:12.508Z,37.56
2019-03-05T09:34:12.263Z,38.03
2019-03-05T09:35:12.414Z,37.89
2019-03-05T09:36:12.466Z,38.12
2019-03-05T09:37:12.328Z,38.58
2019-03-05T09:38:12.677Z,38.61
2019-03-05T09:39:12.593Z,38.7
2019-03-05T09:40:12.766Z,38.65
2019-03-05T09:41:12.380Z,39.01
2019-03-05T09:42:12.510Z,39.24
2019-03-05T09:43:12.357Z,38.71
2019-03-05T09:44:12.433Z,39.2
2019-03-05T09:45:12.343Z,38.98
2019-03-05T09:46:12.387Z,39.01
2019-03-05T09:47:12.503Z,39.03
2019-03-05T09:48:12.357Z,39.04
2019-03-05T09:49:12.269Z,39.15
2019-03-05T09:50:12.467Z,39.1
2019-03-05T09:51:12.286Z,39.08
2019-03-05T09:52:12.383Z,39.38
2019-03-05T09:53:12.470Z,39.19
2019-03-05T09:54:12.382Z,39.43
2019-03-05T09:55:12.363Z,39.26
2019-03-05T09:56:12.487Z,38.93
2019-03-05T09:57:12.364Z,39.25
2019-03-05T09:58:12.341Z,39.09
2019-03-05T09:59:12.524Z,39.05
2019-03-05T10:00:12.407Z,39.25
2019-03-05T10:01:12.566Z,38.91
2019-03-05T10:02:12.512Z,39.26
2019-03-05T10:03:12.331Z,39.41
2019-03-05T10:04:12.364Z,39.36
2019-03-05T10:05:12.532Z,39.08
2019-03-05T10:06:12.368Z,38.86
2019-03-05T10:07:19.454Z,39.4
2019-03-05T10:08:12.506Z,38.96
2019-03-05T10:09:12.361Z,39
2019-03-05T10:10:12.426Z,39.24
2019-03-05T10:11:12.478Z,38.98
2019-03-05T10:12:12.358Z,39.15
2019-03-05T10:13:13.633Z,39.01
2019-03-05T10:14:12.487Z,38.91
2019-03-05T10:15:12.365Z,38.91
2019-03-05T10:16:12.335Z,38.89
2019-03-05T10:17:12.520Z,38.65
2019-03-05T10:18:13.396Z,38.57
2019-03-05T10:19:12.402Z,38.96
2019-03-05T10:20:12.500Z,38.9
2019-03-05T10:21:12.365Z,38.81
2019-03-05T10:22:12.661Z,38.81
2019-03-05T10:23:12.588Z,39.22
2019-03-05T10:24:12.641Z,38.77
2019-03-05T10:25:13.124Z,38.72
2019-03-05T10:26:12.385Z,38.88
2019-03-05T10:27:12.564Z,38.99
2019-03-05T10:28:12.286Z,38.83
2019-03-05T10:29:12.447Z,38.84
2019-03-05T10:30:12.573Z,38.66
2019-03-05T10:31:12.356Z,38.66
2019-03-05T10:32:12.443Z,38.67
2019-03-05T10:33:12.240Z,39.34
2019-03-05T10:34:12.261Z,39.06
2019-03-05T10:35:12.383Z,39.5
2019-03-05T10:36:12.494Z,39.1
2019-03-05T10:37:18.984Z,38.74
2019-03-05T10:38:12.514Z,38.96
2019-03-05T10:39:12.294Z,39.04
2019-03-05T10:40:12.274Z,39
2019-03-05T10:41:12.421Z,38.84
2019-03-05T10:42:12.489Z,38.81
2019-03-05T10:43:12.374Z,39.01
2019-03-05T10:44:12.372Z,38.68
2019-03-05T10:45:12.497Z,38.78
2019-03-05T10:46:12.280Z,38.93
2019-03-05T10:47:12.371Z,38.8
2019-03-05T10:48:12.473Z,38.79
2019-03-05T10:49:12.273Z,38.7
2019-03-05T10:50:15.814Z,38.52
2019-03-05T10:51:12.463Z,38.98
2019-03-05T10:52:12.204Z,39.22
2019-03-05T10:53:12.477Z,38.96
2019-03-05T10:54:12.416Z,38.97
2019-03-05T10:55:12.248Z,38.99
2019-03-05T10:56:12.392Z,38.59
2019-03-05T10:57:12.443Z,38.85
2019-03-05T10:58:12.386Z,38.54
2019-03-05T10:59:12.381Z,38.82
2019-03-05T11:00:12.450Z,38.58
2019-03-05T11:01:12.371Z,38.54
2019-03-05T11:02:12.441Z,38.65
2019-03-05T11:03:12.403Z,38.49
2019-03-05T11:04:12.336Z,38.67
2019-03-05T11:05:12.501Z,38.51
2019-03-05T11:06:12.311Z,38.47
2019-03-05T11:07:12.297Z,38.79
2019-03-05T11:08:12.467Z,38.85
2019-03-05T11:09:12.518Z,38.85
2019-03-05T11:10:12.298Z,38.88
2019-03-05T11:11:14.259Z,38.87
2019-03-05T11:12:12.342Z,38.89
2019-03-05T11:13:12.340Z,38.88
2019-03-05T11:14:12.636Z,38.89
2019-03-05T11:15:12.286Z,38.92
2019-03-05T11:16:12.353Z,38.87
2019-03-05T11:17:12.479Z,38.84
2019-03-05T11:18:12.375Z,38.86
2019-03-05T11:19:12.340Z,38.87
2019-03-05T11:20:12.498Z,38.81
2019-03-05T11:21:12.318Z,38.8
2019-03-05T11:22:12.362Z,38.79
2019-03-05T11:23:12.538Z,38.82
2019-03-05T11:24:12.352Z,38.79
2019-03-05T11:25:12.433Z,38.79
2019-03-05T11:26:12.426Z,38.79
2019-03-05T11:27:12.516Z,38.81
2019-03-05T11:28:12.427Z,38.85
2019-03-05T11:29:12.569Z,38.8
2019-03-05T11:30:12.548Z,38.67
2019-03-05T11:31:12.398Z,38.98
2019-03-05T11:32:12.242Z,38.84
2019-03-05T11:33:12.359Z,38.66
2019-03-05T11:34:13.496Z,38.77
2019-03-05T11:35:12.232Z,38.68
2019-03-05T11:36:12.413Z,38.69
2019-03-05T11:37:12.462Z,38.74
2019-03-05T11:38:12.304Z,38.9
2019-03-05T11:39:12.967Z,39.11
2019-03-05T11:40:21.411Z,38.86
2019-03-05T11:41:12.196Z,38.89
2019-03-05T11:42:12.480Z,38.95
2019-03-05T11:43:13.048Z,38.9
2019-03-05T11:44:12.230Z,39.04
2019-03-05T11:45:12.410Z,39.02
2019-03-05T11:46:12.433Z,38.96
2019-03-05T11:47:12.388Z,38.98
2019-03-05T11:48:12.457Z,38.97
2019-03-05T11:49:12.683Z,38.91
2019-03-05T11:50:12.362Z,38.91
2019-03-05T11:51:12.435Z,38.93
2019-03-05T11:52:12.404Z,38.85
2019-03-05T11:53:12.300Z,38.94
2019-03-05T11:54:12.380Z,39.13
2019-03-05T11:55:12.453Z,39.12
2019-03-05T11:56:12.289Z,39.15
2019-03-05T11:57:12.427Z,39
2019-03-05T11:58:12.434Z,39.15
2019-03-05T11:59:12.406Z,39.07
2019-03-05T12:00:12.414Z,38.79
2019-03-05T12:01:12.427Z,38.91
2019-03-05T12:02:22.111Z,39.21
2019-03-05T12:03:12.323Z,39.42
2019-03-05T12:04:12.263Z,39.84
2019-03-05T12:05:12.485Z,39.76
2019-03-05T12:06:12.460Z,39.35
2019-03-05T12:07:12.462Z,39.61
2019-03-05T12:08:12.471Z,39.39
2019-03-05T12:09:24.876Z,38.88
2019-03-05T12:10:12.493Z,38.94
2019-03-05T12:11:12.374Z,39.21
2019-03-05T12:12:12.280Z,38.75
2019-03-05T12:13:14.768Z,38.63
2019-03-05T12:14:12.412Z,38.59
2019-03-05T12:15:12.434Z,38.55
2019-03-05T12:16:12.267Z,38.72
2019-03-05T12:17:12.359Z,38.55
2019-03-05T12:18:12.430Z,38.42
2019-03-05T12:19:12.263Z,38.6
2019-03-05T12:20:12.364Z,38.7
2019-03-05T12:21:12.435Z,38.42
2019-03-05T12:22:12.202Z,38.45
2019-03-05T12:23:12.400Z,38.47
2019-03-05T12:24:12.541Z,38.37
2019-03-05T12:25:12.270Z,38.53
2019-03-05T12:26:12.440Z,38.37
2019-03-05T12:27:12.680Z,38.66
2019-03-05T12:28:12.226Z,38.82
2019-03-05T12:29:12.295Z,38.83
2019-03-05T12:30:12.373Z,38.88
2019-03-05T12:31:12.282Z,38.88
2019-03-05T12:32:15.487Z,38.86
2019-03-05T12:33:12.405Z,38.87
2019-03-05T12:34:12.360Z,38.86
2019-03-05T12:35:12.445Z,38.88
2019-03-05T12:36:12.230Z,38.87
2019-03-05T12:37:12.242Z,38.86
2019-03-05T12:38:12.450Z,38.8
2019-03-05T12:39:12.269Z,38.82
2019-03-05T12:40:12.291Z,38.82
2019-03-05T12:41:12.625Z,38.83
2019-03-05T12:42:12.217Z,38.79
2019-03-05T12:43:12.245Z,38.79
2019-03-05T12:44:12.412Z,38.76
2019-03-05T12:45:12.272Z,38.74
2019-03-05T12:46:12.425Z,38.75
2019-03-05T12:47:12.403Z,38.75
2019-03-05T12:48:12.474Z,38.74
2019-03-05T12:49:12.284Z,38.7
2019-03-05T12:50:12.408Z,38.7
2019-03-05T12:51:12.286Z,38.7
2019-03-05T12:52:12.313Z,38.72
2019-03-05T12:53:12.514Z,38.83
2019-03-05T12:54:12.349Z,38.96
2019-03-05T12:55:13.550Z,39.21
2019-03-05T12:56:24.280Z,39.32